Terminal Aerodrome Forecast
Issued by NWS

Home | Current Version | Previous Version | Text Only | Print | Product List | Glossary Off
Versions: 1 2 3 4 5 6 7 8 9 10 11 12 13 14 15 16 17 18

000
FTUS43 KBIS 210035 AAA
TAFJMS
TAF AMD
KJMS 210035Z 2101/2124 04011KT P6SM -RA SCT010 OVC020
     FM210600 36010KT 6SM -RA OVC008
     FM211100 34011KT P6SM -SHRA OVC010
     FM211200 34011G19KT P6SM OVC010
     FM211800 33017G25KT P6SM BKN040=

USA.gov is the U.S. government's official web portal to all federal, state and local government web resources and services.